Signals | Jacob Bassoe, Assens, DNK - JO56aq
Paging Controls
KHz ID LSB USB Sec. Fmt. Location S/P ITU Region GSQ Power Logs Notes Latest by Listener Last Heard KM Miles Deg
270 FLO 1017 1030 8.38 ID+4" gap Santa Cruz Das Flores AZR eu HM49jk 1 INACTIVE 2007-04-06 2008-11-19 3537 2198 255
300 SC 392 409 4.92 Linkoping / Malmen And Saab SWE eu JO78sk 1 2007-04-06 2022-06-26 381 237 57
303 KPG 405 395 8.1 ID+4" gap Sogndal / Haukasen / Kaupanger NOR eu JP31oe 1 2007-04-06 2024-03-04 526 327 343
305 S 406 400 4.25 ID+4" gap Mariehamn FIN eu JP90wd 1 2007-04-06 2015-06-19 689 428 51
309 LG 401 398 5.2 Satenas / Tune SWE eu JO68ik 3 2007-04-06 2024-03-04 251 156 38
310 C 410 414 Oulu FIN eu KP24qw 1 INACTIVE 2007-04-04 2012-03-10 1232 765 35
310 KUR 409 409 8.41 ID+5" gap Kuopio / Kurki FIN eu KP32ww 2 INACTIVE 2007-04-06 2015-10-17 1209 751 47
311 CEL 1020 1015 10.08 ID+7" gap Celle DEU eu JO52ao 25 1 2007-04-05 2024-05-15 454 282 180
312 KBG 406 401 6.47 Karlsborg SWE eu JO78el 3 2007-04-06 2024-03-09 326 203 50
315 D 409 415 4.16 Tampere / Pirkkala / Aijala FIN eu KP11sj 1 INACTIVE 2007-04-06 2017-04-15 930 578 50
315 PAH 1020 1020 10.04 ID+6" gap Parchim DEU eu JO53tj 1 2007-04-05 2019-06-21 380 236 163
315 Q 405 408 4.23 Kajaani / Rampsala FIN eu KP34tg 1 INACTIVE 2007-04-06 2010-01-28 1273 791 41
315 STK 400 405 6.5 Stadskanaal HOL eu JO32kx 15 1 INACTIVE 2007-04-04 2008-03-31 459 285 207
315.5 SS 403 405 9.19 Scatsta SHE eu IP90jl 1 Decommissioned 2007-04-05 2020-10-23 775 481 307
316 BGU 375 382 8.54 Bergerud NOR eu JO59pu 3 INACTIVE 2007-04-06 2011-03-19 360 223 11
316 IN 403 406 7.98 Sonderborg DNK eu JO45ua 2 2007-04-06 2020-12-11 186 116 186
316 OE 398 399 8.49 ID+7" gap Dublin IRL eu IO63sk 2 Also heard as OE e 2007-04-06 2024-05-15 1108 688 257
317 HG 387 394 6.29 ID+4" gap Hegra NOR eu JP53ml 1 INACTIVE 2007-04-06 2012-11-21 757 470 3
317 STT 372 382 7.11 Bodo / Stott NOR eu JP66rw 1 2007-04-06 2020-01-27 1153 717 7
318 B 410 400 4.24 ID+3" gap Pori FIN eu KP01vl 1 INACTIVE 2007-04-06 2013-09-12 855 531 46
318 HIG 404 397 10.04 ID+1" gap Bremen DEU eu JO43kb 25 2 2007-04-06 2024-05-15 410 255 190
318 LP 412 409 5.06 Ronneby / Kallinge SWE eu JO76pi 3 2007-04-06 2021-12-29 324 201 94
319 C 1038 1038 5.17 ID+3" gap Prerov CZE eu JN89pj 1 INACTIVE - Negative IDent = IA 2007-04-06 2016-10-30 943 586 146
319 G 410 407 4.23 Halli / Laajakallio FIN eu KP21iw 1 INACTIVE 2007-04-06 2011-02-03 1013 629 48
319 VAR 396 406 8.08 ID+4" gap Stavanger / Sola / Varhaug NOR eu JO28tp 25 3 WAS LEC 2007-04-06 2021-09-12 341 212 311
320 HA 1019 1020 8.09 Hannover / East DEU eu JO42vl 25 2 2007-04-06 2024-05-15 468 291 182
320 IL 395 380 6.7 Bodo / Ilstad NOR eu JP77ig 1 withdrawn 2019-28-03 2007-04-06 2019-04-16 1201 746 9
320 OL 400 402 4.85 ID+1" gap Lycksele SWE eu JP94jl 1 2007-04-06 2024-04-28 987 613 25
320 TY 5 21.6 ID+14" tone Troyes / Barberey FRA eu JN28aj 2 keyed carrier NDB 2007-04-06 2024-05-15 1006 625 206
322 GDN 1037 1020 7.99 ID+4.5" gap Gdansk POL eu JO94hi 2 INACTIVE - WAS GDA 2007-04-06 2014-05-06 599 372 112
322 KOR 411 400 8.41 Helsinki / Malmi / Korso FIN eu KP20mi 1 INACTIVE 2007-04-06 2013-11-02 959 596 58
322 OU 400 420 4.66 ID+2" gap Stockholm / Bromma SWE eu JO99ah 3 withdrawn 2020-05-21 2007-04-06 2021-09-12 554 344 54
323 GT 1019 1029 10.08 ID+4" gap Hamburg / North DEU eu JO43xr 25 2 INACTIVE 2007-04-06 2020-05-22 329 204 180
324 AS 407 410 8.36 Kemi / Tornio FIN eu KP25eq 1 2007-04-06 2023-05-17 1255 780 31
324 HE 376 384 7.29 ID+5" gap Notodden / Heddal NOR eu JO49mo 2 2007-04-06 2024-02-17 330 205 350
324 ML 420 410 5.82 ID+3" gap Aarhus DNK eu JO56fh 2 INACTIVE 2007-04-06 2015-05-25 49 30 148
324 ON 399 402 4.64 Norrkoping SWE eu JO88eo 2 2007-04-06 2024-05-15 433 269 57
325 DH 407 386 3.74 ID+1" gap Oskarshamn SWE eu JO87fh 1 INACTIVE 2007-04-06 2014-08-01 395 245 77
325 DP 1043 1039 16.49 ID+12" tone Diepholz DEU eu JO42fo 25 2 only active at daytime on request 2007-04-06 2024-01-10 465 289 193
325 JOE 404 398 8.4 ID+4" gap Joensuu FIN eu KP42rq 2 INACTIVE 2007-04-06 2015-01-03 1270 789 50
325 PG 400 399 5.3 ID+2" gap Trollhattan / Vanersborg SWE eu JO68fg 2 2007-04-06 2024-01-01 228 141 38
326 FSK 401 396 8.04 Fauske NOR eu JP77ng 1 withdrawn 2019-05-23 2007-04-06 2019-04-07 1205 749 10
326 KK 396 400 4.19 Karlskoga SWE eu JO79gj 2 INACTIVE 2007-04-06 2010-01-28 401 249 39
326 OG 397 406 4.91 ID+1" gap Gavle / Sandviken SWE eu JP80lp 2 withdrawn 2017-11-03 2007-04-06 2020-03-30 594 369 39
326 SUI 417 411 8.29 Tampere / Pirkkala / Suinu FIN eu KP21am 1 INACTIVE 2007-04-06 2015-05-27 960 597 50
327 LNZ 1020 1019 10.08 ID+6" gap Linz / Horsching AUT eu JN78df 1 2007-04-05 2024-05-15 983 611 161
327 MVC 401 400 10.26 DAID Merville / Calonne FRA eu JO10hn 1 2007-04-05 2024-05-15 837 520 218
327 POR 1025 1024 8.5 ID+4" gap Porto POR eu IN51pi 1 INACTIVE 2007-04-06 2018-06-24 2170 1349 226
327 Y 400 408 3.25 Sveg SWE eu JP72eb 2 withdrawn 2019-01-31 2007-04-06 2021-01-25 646 401 20
328 DK 409 384 3.68 ID+1" gap Vilhemina SWE eu JP84io 1 2007-04-05 2024-03-09 951 591 19
328 KIT 409 407 8.39 ID+6" gap Kittila FIN eu KP27ko 1 2007-04-05 2024-04-28 1429 888 25
328 VJ 400 399 7.99 ID+6" gap Stauning DNK eu JO45fx 1 2007-04-06 2024-05-15 125 78 231
329 IB 404 411 8.4 Tallinn EST eu KO29hj 2 INACTIVE 2007-04-06 2010-09-17 907 564 64
329 NMS 379 384 7.3 Namsos NOR eu JP54vl 2 Hrd by Bo Nensen on 1645 KHz (5x329) 2007-04-06 2024-04-26 872 542 5
329 VX 399 405 4.7 Vaxjo / Kronoberg SWE eu JO76iu 1 2007-04-06 2024-04-26 285 177 84
330 ABU 1029 1036 8.48 ID+5" gap Altenburg / Nobitz DEU eu JO60gx 25 1 2007-04-05 2024-05-15 655 407 164
330 HA 1127 928 5.76 ID+2" gap Kharkiv / Osmova UKR eu KN89cn 1 INACTIVE - DRIFTING 2007-04-06 2014-12-26 1902 1182 103
330 HR 1009 961 15.36 ID+4" gap Kharkov / Osnova UKR eu KN89cw 1 INACTIVE 2007-04-05 2014-04-22 1878 1167 102
330 LNA 400 404 5.4 Lena SWE eu JO89qm 2 2007-04-06 2024-01-01 533 331 50
330 SKS 410 405 5.3 Karlstad SWE eu JO69pj 2 2007-04-06 2024-03-09 357 222 31
331 GLW 401 396 6.42 Glasgow SCT eu IO75su 1 2007-04-06 2023-12-31 898 558 270
331 GST 402 397 4.88 Gloucester ENG eu IO81vv 12 1 Power confirmed by QSL 2007-04-06 2024-05-15 955 593 241
332 FAR 1024 1020 7.43 ID+4" gap Faro POR eu IM67aa 1 INACTIVE 2007-04-06 2018-04-09 2562 1592 219
333 G 419 404 4.37 Kemi-Tornio / Marttala FIN eu KP25gs 1 2007-04-05 2023-07-06 1267 787 31
333 LE 404 401 3.85 Vasteraas / Hasslo SWE eu JO89ip 2 2007-04-06 2024-03-11 511 317 47
333 PI 1030 1034 8.27 ID+6" gap Schwerin / Parchim DEU eu JO53wl 1 2007-04-05 2021-07-19 375 233 161
334 FAU 398 404 9.06 Bornholm / Ronne / Fauna DNK eu JO75ka 2 2007-04-06 2024-04-26 354 220 119
334 OPA 361 390 7.65 Oslo / Gardermoen / Oppaker NOR eu JP50se 2 INACTIVE 2007-04-06 2011-03-19 399 248 12
334 S 418 404 4.16 Kuopio / Jala FIN eu KP33va 1 INACTIVE 2007-04-06 2017-02-05 1209 751 47
335 AC 390 Hultsfred SWE eu JO77vm 2 INACTIVE 2007-04-06 2012-05-08 359 223 72
335 NAK 405 406 5.4 Stockholm / Bromma / Nacka SWE eu JO99cg 1 2007-04-06 2024-01-02 560 348 55
335.5 TWN 420 400 6 Twenthe HOL eu JO32kg 2 INACTIVE 2007-04-06 2008-02-22 532 330 203
336 BTA 399 402 7.1 Bergen / Flesland / Bratta NOR eu JP20pb 1 INACTIVE 2007-04-05 2015-10-13 466 290 325
336 LT 406 398 4.15 Halmstad SWE eu JO66kx 2 2007-04-06 2024-05-15 175 109 78
336 RS 398 401 10.08 Roros NOR eu JP52pn 1 2007-04-05 2023-12-31 657 408 5
337 KAJ 414 402 8.48 Kajaani / Koutaniemi FIN eu KP34sg 2 INACTIVE 2007-04-06 2014-08-23 1269 789 41
337 MY 406 409 14.19 ID+6" gap Myggenaes FRO eu IP62ec 1 2007-04-05 2024-04-28 1162 722 308
337 OZ 404 395 5.29 Soderhamn / Skallen SWE eu JP81of 2 INACTIVE 2007-04-06 2011-11-27 650 404 36
338 OA 399 394 4.58 Jonkoping SWE eu JO77bt 2 2007-04-06 2024-03-09 276 171 61
339 EA 403 402 3.45 Stockholm / Arlanda SWE eu JO99bq 1 INACTIVE 2007-04-06 2010-09-24 579 360 51
339 HOS 1021 1019 10.04 ID+2" gap Hamburg DEU eu JO53bq 2 INACTIVE - EX HAM-339.0 2007-04-06 2020-03-28 334 207 179
339 LS 386 385 8.1 Forde / Bringeland / Langeneset NOR eu JP21wj 1 Decommissioned 2016-06-01 2007-04-05 2016-05-28 575 357 337
339 SD 400 398 4.7 ID+3" gap Sindal DNK eu JO57bm 2 2007-04-06 2021-12-27 93 58 3
339 WK 865 870 15 Velikiye Luki RUS eu KO56gh 2 INACTIVE 2007-04-06 2012-03-14 1254 779 83
340 HEI 401 399 10.04 ID+8" gap Heidrun XOE iw JP35ph 50 1 2007-04-05 2024-04-28 970 603 352
340 KAI 410 400 8.4 Utti / Kaipi FIN eu KP30nv 1 INACTIVE 2007-04-06 2014-12-29 1086 674 57
340 KS 400 403 8.27 Kuusamo / Oivanki FIN eu KP46nb 1 INACTIVE 2007-04-05 2021-01-19 1445 898 36
340 ZIG 1022 1018 10.04 ID+6" gap Leipzig DEU eu JO61dk 1 2007-04-05 2024-05-15 602 374 164
341 EDN 404 402 4.54 Edinburgh SCT eu IO85ix 1 2007-04-05 2024-03-03 824 512 270
341 LO 403 390 12.3 ID+7" gap Billund DNK eu JO45pr 2 INACTIVE 2007-04-06 2018-01-16 116 72 203
341 NKS 410 405 5.3 Karlstad SWE eu JO69rm 1 2007-04-06 2024-03-23 373 232 31
341 POR 415 408 8.43 ID+4" gap Pori FIN eu KP01um 1 INACTIVE 2007-04-05 2013-11-02 854 530 46
342 LL 392 401 10.04 ID+7" gap Leirin / Fagernes NOR eu JP41pa 2 Decommissioned July 2023 2007-04-06 2021-02-21 484 301 355
342 SL 400 396 4.51 Goteborg / Landvetter SWE eu JO67co 1 2007-04-05 2023-12-31 166 103 51
343 KUS 402 400 10.08 ID+7" gap Kaunas / Karmelava LTU eu KO24bx 100 2 IDX = Negative Keying 2007-04-06 2024-04-27 898 558 96
344 HEK 406 410 8.4 ID+6" gap Heka For Helsinki / Vantaa FIN eu KP20rg 2 INACTIVE 2007-04-06 2011-05-04 978 608 59
344 HN 1044 1043 8.22 ID+2" gap + 4" tone Hohn DEU eu JO44uh 25 2 2007-04-06 2023-08-26 265 165 184
345 BN 380 382 9.02 ID+6" gap Kristiansand / Kjevik / Birkeland NOR eu JO48ch 2 Not on Skyvector 2007-04-06 2021-11-05 211 131 329
345 EMD 1025 1027 10 ID+8" gap Emden DEU eu JO33nf 2 INACTIVE 2007-04-06 2015-05-16 427 265 207
345 FT 378 379 7.4 Forde / Bringeland / Fleten NOR eu JP21si 1 Decommissioned 2016-06-01 2007-04-05 2016-05-28 579 360 335
345 STM 400 398 8.04 Strommen / Mo I Rana NOR eu JP66vg 1 2007-04-05 2024-04-28 1084 673 8
345 SUS 415 407 8.32 Kauhava / Susi FIN eu KP13mf 2 INACTIVE 2007-04-06 2015-01-02 1022 635 39
346 GS 405 393 3.61 ID+1" gap Gavle / Sandviken SWE eu JP80ln 2 INACTIVE 2007-04-06 2016-10-24 588 365 39
346 MI 411 411 8.35 Mikkeli / Korpikoski FIN eu KP31mr 2 2007-04-06 2024-04-27 1113 692 52
346 WLU 1020 1020 10.08 ID+5" gap Luxembourg LUX eu JN39an 15 1 decommissioned 2022-12-29 2007-04-06 2022-12-27 836 519 200
347 DBR 1022 1028 6.1 ID+1" gap Berlin / Tempelhof / Helmholtz DEU eu JO62pl 25 2 INACTIVE 2007-04-06 2008-10-31 512 318 154
347 MSK 398 402 10.08 Morskogen NOR eu JP50pk 2 INACTIVE 2007-04-06 2011-03-19 423 263 9
347.5 TD 416 404 10.46 Teeside ENG eu IO94in 1 2007-04-05 2024-05-15 749 465 256
348 WA 398 404 4.46 ID+2" gap Stockholm / Arlanda SWE eu JO89xp 2 2007-04-06 2023-12-31 568 353 51
349 JX 394 405 5.39 ID+1" gap Vaxjo / Kronoberg SWE eu JO76jx 2 2007-04-06 2024-04-27 291 181 81
349 KAS 1016 1026 5.89 ID+1" gap Kassel / Calden DEU eu JO41rl 100 2 INACTIVE - WAS KSL 2007-04-06 2013-04-26 580 361 183
349 TAR 404 395 8.04 ID+5" gap Orland / Tarva NOR eu JP43rt 1 Decommissioned 2022-12-16 2007-04-05 2021-12-31 793 493 357
349.5 LPL 410 404 6.81 Liverpool ENG eu IO83pi 1 2007-04-06 2024-03-25 891 554 250
350 DWN 1021 1020 6.49 ID+5" gap Devnya For Varna BUL eu KN33tf 1 2007-04-05 2024-05-15 1943 1207 132
350 LAA 415 402 8.48 ID+5" gap Oulu / Laanila FIN eu KP24ox 2 INACTIVE 2007-04-06 2020-12-12 1229 763 35
350.5 ROT 399 400 8.12 ID+4.7" gap Rotterdam HOL eu JO21gv 15 1 Decommissioned August 12, 2021 2007-04-06 2021-08-12 641 398 216
351 KP 408 404 5.47 ID+2" gap Karup DNK eu JO46lh 2 decommissioned 2020-03-31 2007-04-06 2020-03-21 78 49 238
351 OV 419 401 5.07 ID+2" gap Visby SWE eu JO97er 2 INACTIVE 2007-04-06 2020-07-27 515 320 73
352 CG 400 402 5.1 Stockholm / Arlanda SWE eu JO89xm 2 INACTIVE 2007-04-06 2013-07-08 561 349 52
352 PSJ 407 409 8.45 ID+4" gap Seinajoki FIN eu KP12lp 2 2007-04-06 2024-04-27 979 608 42
352 RBU 389 383 8.62 Roros / Rambu NOR eu JP52sm 1 INACTIVE - NOW ON 401.0 2007-04-05 2011-12-28 654 406 6
352 TRF 400 401 10.04 Tyrifjord NOR eu JO59dw 1 INACTIVE 2007-04-06 2011-04-02 362 225 2
352.5 DD 403 395 10.03 ID+8" gap Oostende BEL eu JO11ke 100 1 SENDING 'TEST' -/+ 400 Hz OFFSETS 2007-04-06 2024-05-15 770 478 220
353 KIL 408 393 10.08 Kiel / Holtenau DEU eu JO54bi 25 2 2007-04-06 2024-01-01 259 161 178
353 KRW 1007 1008 6.29 ID+3" gap Krakow / Balice POL eu JO90wc 2 INACTIVE 2007-04-06 2015-03-05 978 608 134
353 SB 2 1 18.96 ID+17" tone St. Brieuc / Armor FRA eu IN88on 1 keyed carrier NDB 2007-04-05 2024-05-15 1248 775 229
353.5 EME 401 400 4.04 East Midlands ENG eu IO92jt 25 1 2007-04-06 2024-03-25 839 521 243
354 GYR 1012 1021 8.09 ID+3" gap Gyor HNG eu JN87up 1 INACTIVE 2007-04-05 2019-06-09 1132 703 149
354 PAD 1032 1035 8.44 ID+4" gap Paderborn / Lippstadt DEU eu JO41ho 25 2 2007-04-06 2024-05-15 573 356 189
355 J 414 403 4.23 Varkaus FIN eu KP32we 1 INACTIVE 2007-04-05 2015-05-12 1173 729 51
355 KNG 1025 1018 7.76 ID+3.4" gap Bad Konig For Frankfurt / Main DEU eu JN49ns 25 1 INACTIVE 2007-04-06 2014-10-26 771 479 184
355 PIK 399 395 6.06 Prestwick SCT eu IO75rm 1 2007-04-05 2024-04-27 912 567 267
356 WBA 400 397 5.87 Wolverhampton ENG eu IO82um 1 2007-04-05 2024-05-15 918 570 244
357 KD 403 390 3.9 Kolding / Vamdrup DNK eu JO45qk 2 2007-04-06 2024-05-15 145 90 196
357 NRG 1055 1013 14.9 Neubrandenburg DEU eu JO63qo 1 INACTIVE 2007-04-05 2014-12-25 403 250 146
357 SEP 408 407 8.4 Vaasa / Seppi FIN eu KP03ud 2 INACTIVE 2007-04-06 2013-08-11 966 600 37
358 GRK 405 397 10.08 Trondheim / Vaernes / Grakallen NOR eu JP53dk 25 3 INACTIVE 2007-04-06 2020-10-12 751 466
358 HW 398 397 8.09 ID+1" gap Hannover / West DEU eu JO42sl 25 3 2007-04-06 2024-02-15 469 291 184
358 TUN 1019 1020 10.03 ID+7" gap Tulln for Schwechat AUT eu JN78xh 1 2007-04-05 2024-05-15 1013 629 154
359 LK 411 389 4.5 Lidkoping / Ekgarden SWE eu JO68nk 2 INACTIVE 2007-04-06 2012-03-18 268 166 42
360 BD 1021 1021 20 IDx2 + 20" gap Bogdanovo RUS eu KO87uc 1 2007-04-04 2024-02-09 1669 1037 76
360 OS 407 392 3.82 Goteborg / Save SWE eu JO57wt 2 INACTIVE 2007-04-06 2016-12-28 167 104 40
360.5 MAK 403 396 10.08 ID+7" gap Mackel for Brussels Ntl BEL eu JO10rx 1 2007-04-06 2024-05-15 767 477 216
361 LIE 412 399 8.39 Turku / Lieto FIN eu KP10fm 2 INACTIVE 2007-04-06 2015-08-02 834 518 54
361 RO 412 405 8.43 Kauhava FIN eu KP13ma 1 INACTIVE 2007-04-06 2015-01-01 1008 626 40
362 NN 403 372 2.97 Eskilstuna / Kjula SWE eu JO89ij 2 decommissioned 2020-09-10 2007-04-06 2020-08-09 494 307 49
362 SLN 1030 1020 10 Berlin / Schonefeld DEU eu JO62sj 1 INACTIVE 2007-04-05 2009-05-23 528 328 153
362.5 SND 401 401 8.09 Southend-On-Sea ENG eu JO01in 25 2 2007-04-06 2024-05-15 832 517 230
363 OEM 397 399 5.38 Kristianstad / Everod SWE eu JO75bx 1 WAS OE 2007-04-04 2024-04-27 264 164 105
364 NW 376 427 4.33 Stockholm / Skavsta / Nykoping SWE eu JO88js 2 2007-04-06 2023-12-31 463 287 57
364 VNA 411 395 5.47 Vanja SWE eu JP93wt 1 2007-04-06 2024-02-21 958 595 30
365 AD 1016 1013 10.1 ID+6" gap Sochi RUS eu KN93xj 1 400 / 1020 Hz OFFSETS 2007-04-06 2024-05-15 2565 1594 112
365 LJ 1027 1018 7.63 ID+3" gap Koln / Bonn DEU eu JO30mw 25 2 2007-04-06 2024-05-15 669 416 198
365 VS 409 414 8.45 Tampere / Pirkkala / Vesilahti FIN eu KP11rj 2 decommissioned 2019-11-31 2007-04-06 2019-11-24 926 575 50
365 WS 394 405 Soderhamn SWE eu JP81lh 2 INACTIVE 2007-04-06 2014-09-27 648 403 34
366 KM 405 400 4.6 Kalmar SWE eu JO86cr 2 2007-04-06 2024-01-07 376 234 86
366 MB 400 400 5.5 Lolland Falster / Maribo DNK eu JO54rq 1 INACTIVE 2007-04-06 2016-01-24 239 149 157
366 SF 423 376 3.86 Falkoping SWE eu JO68pb 2 INACTIVE 2007-04-06 2015-01-01 248 154 50
367.5 OX 400 404 8.12 Oxford / Kidlington ENG eu IO91it 1 2007-04-04 2024-05-15 912 567 238
368 BYC 1048 1049 16.57 ID+8" tone Buckeburg DEU eu JO42ng 2 2007-04-06 2024-05-15 495 307 187
368 FN 390 385 6.55 Finndal / Skien NOR eu JO49sd 2 INACTIVE 2007-04-06 2015-09-08 275 171 354
368 OY 385 391 5.53 Sveg SWE eu JP72db 2 2007-04-06 2024-03-11 644 400 20
368 RK 405 396 9.98 Copenhagen / Roskilde DNK eu JO55xo 1 2007-04-06 2022-05-17 169 105 134
368.5 ELU 1019 1020 8.09 ID+7" gap Luxembourg-Berg LUX eu JN39eq 15 2 decommissioned 2022-12-29 2007-04-06 2022-12-27 815 507 198
369 KA 364 348 4.64 ID+2" gap Karup DNK eu JO46oh 25 2 decommissioned 2020-03-31 2007-04-06 2020-03-21 66 41 231
369 NL 406 403 4.43 ID+2" gap Goteborg / Landvetter SWE eu JO67er 2 2007-04-06 2023-12-31 182 113 49
369 STG 396 406 8.08 Stegen NOR eu JP31eu 1 2007-04-04 2023-12-31 611 380 341
370 DC 411 393 4.85 Oskarshamn SWE eu JO87gj 1 INACTIVE 2007-04-04 2013-09-12 401 249 75
370 JR 403 403 8.4 Varkaus / Joroinen FIN eu KP32wd 25 1 INACTIVE 2007-04-06 2015-05-26 1172 728 51
370 OHT 407 401 5.66 Stockholm / Arlanda SWE eu JO89wn 2 INACTIVE 2007-04-06 2012-12-24 560 348 51
370 PSA 1021 1019 9.09 ID+3" gap Spessart DEU eu JN49qu 25 1 INACTIVE 2007-04-04 2020-04-23 761 473 183
370 RT 1015 1016 10.05 Moscow / Ramenskoe RUS eu KO95cm 2 2007-04-06 2024-03-09 1739 1080 82
370.5 LB 410 402 4.79 Angelholm / Barkakra SWE eu JO66ji 2 2007-04-06 2024-05-15 173 107 101
371 BRS 402 399 10.08 Bremsnes for Kristiansund / Kvernberget NOR eu JP33tc 50 1 2007-04-04 2022-09-25 726 451 350
371 HAA 374 389 15.85 ID+5" gap Hamar / Stafsberg NOR eu JP50mt 2 INACTIVE 2007-04-06 2017-08-28 462 287 6
371 MGL 1037 1032 8.291 ID+4" gap Ponta Delgada / Sao Miguel Island AZR eu HM77er 1 INACTIVE 2007-04-04 2012-08-25 3358 2086 246
371.5 U 402 402 4.24 Helsinki / Vantaa FIN eu KP20lh 1 INACTIVE 2007-04-06 2011-09-25 953 592 58
372 NOR 1037 1037 8.31 ID+2" tone + gap Nordholz DEU eu JO43js 30 3 2022-02-25; changed from NDO to NOR 2007-04-06 2024-05-15 334 207 194
372 ODR 399 388 7.57 ID+3" gap Kristiansand / Kjevik / Odderoy NOR eu JO38xd 2 decommissioned 2021-12-02 2007-04-06 2021-11-09 205 127 323
373 BTH 395 405 ID+7" gap Barth DEU eu JO64ii 25 2 INACTIVE 2007-04-06 2007-12-14 309 192 145
373 KEM 404 413 8.47 ID+6" gap Kemi-Tornio / Hirmula FIN eu KP25hu 25 3 2007-04-06 2023-09-22 1277 793 31
373 NW 400 399 8.12 ID+1" gap Maastricht / Beek HOL eu JO21wa 15 2 2007-04-06 2024-05-15 686 427 205
374 S 404 407 8.29 Mikkeli FIN eu KP31pp 1 2007-04-06 2024-02-21 1122 697 53
374 TU 403 401 4.07 Aarhus / Tistrup DNK eu JO56jg 2 INACTIVE 2007-04-06 2011-02-27 65 41 134
375 AY 1020 1030 Warzaw / Okecie / Piaseczno POL eu KO02le 1 INACTIVE 2007-04-06 2011-04-28 864 537 120
375 FR 422 406 8.38 Pori / Vanhakyla FIN eu KP01xk 2 INACTIVE 2007-04-06 2013-09-12 860 534 47
375 HET 406 411 8.32 Enontekio / Hetta FIN eu KP18sk 1 INACTIVE 2007-04-04 2015-10-17 1471 914 22
375 KD 412 407 4.87 Kristanstad / Everod SWE eu JO75av 2 2007-04-06 2024-03-09 262 163 107
375 NDG 1020 1021 8.5 ID+4" gap Nordlingen DEU eu JN58ft 2 INACTIVE 2007-04-06 2008-11-24 876 544 177
375 RB 397 401 4.84 ID+2" gap Orebro SWE eu JO79md 1 2007-04-06 2024-03-11 402 250 45
375 TR 418 417 17.5 IDx2 Phillips / Tor E Platform XOE iw JO16pp 50 1 INACTIVE 2007-04-06 2015-08-02 412 256 272
376 HP 399 392 4 ID+2" gap Esbjerg DNK eu JO45em 1 2007-04-06 2023-12-25 166 103 219
376 LN 397 396 3.84 Hultsfred SWE eu JO77xl 2 INACTIVE 2007-04-06 2014-11-23 368 229 73
376 WP 420 391 6.9 ID+4" gap Amsterdam / Schipol / Weesp HOL eu JO22mh 1 INACTIVE 2007-04-06 2020-07-27 583 363 215
377 PA 404 409 8.45 Rovaniemi / Niskapera FIN eu KP26tl 2 INACTIVE 2007-04-06 2013-02-03 1358 844 30
377 SM 400 395 3.3 ID+1" gap Mora / Siljan SWE eu JP70ev 2 2007-04-06 2024-01-07 530 329 26
378 KLY 406 410 7.03 ID+3" gap Killiney for Dublin IRL eu IO63wg 2 2007-04-06 2024-03-11 1096 681 256
378 OS 402 405 4.9 ID+2" gap Sundsvall / Harnosand SWE eu JP82rl 1 decommissioned 2020-08-13 2007-04-04 2020-08-09 766 476 29
379 CZ 14 20 Charleville Mezieres FRA eu JN29et 2 INACTIVE 2007-04-06 2008-10-10 852 529 208
379 PIS 1026 1019 6.9 ID+3" gap Pisa (PI) ITA eu JN53do 25 1 Province : Pisa 2007-04-06 2024-04-26 1455 904 179
379 REK 394 405 9.08 Reksten NOR eu JP21kn 100 2 INACTIVE 2007-04-06 2017-04-09 617 383 333
380 FLR 380 389 8.47 ID+3" gap Trondheim / Vaernes / Flornes NOR eu JP53ql 50 2 INACTIVE 2007-04-06 2020-03-30 759 471 5
380 LF 396 402 4.87 ID+4" gap Ronneby / Kallinge SWE eu JO76oe 1 2007-04-04 2022-09-26 322 200 97
380 PHS 406 410 8.44 Pyhasalmi FIN eu KP23wg 2 INACTIVE 2007-04-06 2016-02-28 1140 708 43
380 TOL 407 408 8.58 ID+4" gap Ivalo / Tolo FIN eu KP38on 1 Inactive, July 2023 2007-04-04 2023-03-18 1573 978 26
381 AB 400 400 10.5 Akraberg / Sydero FRO eu IP61pj 2 INACTIVE 2007-04-06 2008-01-22 1087 676 305
381 ESP 414 402 8.56 ID+3" gap Helsinki / Vantaa / Espoo FIN eu KP20jf 2 INACTIVE 2007-04-06 2013-08-26 941 585 59
381 RG 404 397 10.08 Rygge / Tune NOR eu JO59mh 2 WAS RY 2007-04-06 2024-04-27 298 185 10
382 FW 1019 1015 4.89 Frankfurt / Raunheim DEU eu JO40fa 25 2 decommissioned 2023-08-10 2007-04-06 2023-08-07 749 465 188
382 IJ 408 407 8.26 Ilmajoki FIN eu KP21ft 1 2007-04-06 2024-02-21 995 618 49
382 SBG 1026 1018 10.04 ID+6" gap Salzburg / Oberndorf AUT eu JN67kx 50 1 Decommissioned 2023-06-15 2007-04-06 2023-06-12 987 613 167
383 ERK 405 400 5.15 Erken SWE eu JO99ev 2 2007-04-06 2024-03-11 603 375 50
383 GDB 1031 1019 8.79 ID+3" gap Gdansk / Rebiechowo POL eu JO94gi 2 INACTIVE - WAS S 2007-04-06 2015-12-28 594 369 112
383 LST 380 380 7.5 Lista NOR eu JO38ib 50 2 INACTIVE 2007-04-06 2007-07-25 252 156 308
383 SHD 407 407 5.3 Scotstown Head SCT eu IO97cn 2 INACTIVE 2007-04-06 2010-07-14 720 447 282
383.5 GUL 400 401 8.12 ID+4" gap Gulpen HOL eu JO20wt 15 1 INACTIVE 2007-04-04 2019-05-10 708 440 204
384 HNS 400 400 10 Sandane / Anda / Hoynes NOR eu JP21uv 2 INACTIVE 2007-04-06 2010-01-30 629 391 338
384 NS 399 368 3.52 Skovde SWE eu JO78af 1 2007-04-04 2023-03-25 294 183 52
385 AVN 1020 1017 10.04 ID+7" gap Vilnius LTU eu KO24pp 1 2007-04-04 2024-04-29 981 609 96
385 KV 415 408 8.53 Halli / Talasniemi FIN eu KP21lu 2 INACTIVE 2007-04-06 2013-08-13 1020 634 49
385 WL 399 400 8.09 Barrow / Walney Isl ENG eu IO84id 1 2007-04-04 2024-03-23 886 550 257
386 BZ 400 398 10 Brize Norton ENG eu IO91er 50 1 2007-04-04 2024-05-15 936 581 238
386 LK 401 407 8.1 ID+5" gap Tallinn / Ulemiste EST eu KO29lj 300 2 INACTIVE 2007-04-06 2011-01-28 926 575 64
386 PTB 1018 1022 8.04 Pusztaszabolcs HNG eu JN97id 1 decommissioned 2019-07-01 2007-04-04 2020-04-24 1214 754 147
387 CEV 1019 1029 6.57 ID+2" gap Cervia (RA) ITA eu JN64cg 1 INACTIVE - Province : Ravenna 2007-04-04 2011-07-03 1389 863 172
387 CML 441 433 4.95 Clonmel IRL eu IO62gk 50 1 2007-04-04 2024-04-26 1219 757 254
387 JL 418 404 8.31 Kuopio FIN eu KP33ub 2 INACTIVE 2007-04-06 2015-05-24 1208 750 46
387 SLT 983 965 28.53 DAID Sylt / Westerland DEU eu JO44eu 1 Decommissioned 2023-03-01 2007-04-06 2023-02-21 229 142 207
387 SOK 414 397 10.08 Oslo / Gardermoen / Sokna NOR eu JP40wf 2 INACTIVE 2007-04-06 2011-03-19 394 245 358
388 COR 397 397 6.73 Corner for Bromma SWE eu JO89rg 1 2007-04-06 2024-03-11 523 325 53
388 KRU 411 409 8.5 Kokkola-Pietarsaari / Kruunupyy FIN eu KP13ot 2 2007-04-06 2023-10-12 1071 665 36
388.5 CH 401 398 8.12 Amsterdam / Schiphol HOL eu JO22gf 1 Decommissioned August 12, 2021 2007-04-04 2021-08-12 610 379 217
389 MR 386 377 22.52 Skien / Geiteryggen / Myra NOR eu JO49sg 2 INACTIVE 2007-04-06 2015-06-17 289 179 354
389.5 TSA 410 410 9.5 Amoco / Leman AP Platform XOE iw JO13ba 1 INACTIVE 2007-04-06 2011-01-17 650 404 234
390 BBM 1034 1022 6.03 Babimost POL eu JO72vd 1 INACTIVE 2007-04-04 2014-12-29 627 389 141
390 LV 408 397 4.83 Arvika SWE eu JO69hp 1 INACTIVE 2007-04-06 2013-10-10 362 225 23
390 SS 415 414 3.58 Skovde SWE eu JO68wh 2 2007-04-06 2022-11-27 292 181 50
391 OKR 1016 1023 10.04 ID+5" gap Bratislava / M.R Stefanik / North SVK eu JN88pf 2000 2 2007-04-06 2024-05-15 1060 658 149
392 GDY 417 412 8.47 ID+4" gap Mariehamn / Godby FIN eu JP90xe 2 INACTIVE 2007-04-06 2015-03-21 695 432 51
392 RAN 401 409 8.44 Lappeenranta / Ranta FIN eu KP41aa 1 INACTIVE 2007-04-04 2018-11-28 1137 706 57
392 RW 1017 1023 10.08 ID+7" gap Berlin / Tegel West DEU eu JO62nn 50 2 decommissioned 2021-06-18 2007-04-05 2021-12-25 500 310 155
393 AB 396 393 3.89 Hagfors SWE eu JO69tw 3 2007-04-06 2024-02-25 417 259 28
393 TAT 407 402 10.02 Molde / Aro / Tautra NOR eu JP32kq 3 2007-04-06 2024-04-27 690 429 346
394 DND 400 402 8.09 Dundee SCT eu IO86kk 25 1 2007-04-06 2024-05-15 806 501 273
394 JOK 408 408 8.47 Kauhajoki FIN eu KP12hl 1 INACTIVE 2007-04-06 2012-02-25 954 593 42
394 LYE 1026 1011 7.23 ID+3" gap Lubeck / Blanckensee DEU eu JO53it 2 2007-04-06 2024-04-26 322 200 172
394 NB 395 406 4.56 Stockholm / Bromma SWE eu JO89vj 1 2007-04-04 2022-11-26 546 339 53
395 GE 397 406 9.5 Billund DNK eu JO45mk 2 INACTIVE 2007-04-06 2017-07-06 152 95 204
395 OA 399 402 8.12 Amsterdam / Schiphol / Assendelft HOL eu JO22jl 15 1 Decommissioned August 12, 2021 2007-04-06 2021-08-12 577 359 218
396 HYV 407 406 8.55 Hyvinkaa FIN eu KP20in 2 INACTIVE 2007-04-06 2010-01-30 949 590 56
396 ROC 2 4 19.34 ID+14" tone Rochefort / St Agnant FRA eu IN95mv 1 keyed carrier NDB 2007-04-04 2024-05-15 1419 882 216
396 YG 404 398 10.04 Rygge / Enge NOR eu JO59ji 2 2007-04-06 2024-04-28 300 186 8
397 LM 401 400 5.2 Borlange / Rommehed / Falun SWE eu JP70tj 1 2007-04-04 2024-03-09 524 326 35
397 NF 414 392 4.12 Falkoping SWE eu JO68tf 2 INACTIVE 2007-04-06 2016-09-25 274 170 49
397 OL 1018 1028 5.31 Szczecin / Golienow POL eu JO73ln 2 decommissioned 2020-12-03 2007-04-06 2020-12-02 467 290 135
398 ESS 401 408 8.48 Kokkola-Pietarsaari /Kruunupyy / Esse FIN eu KP13np 2 2007-04-06 2023-10-12 1056 656 37
398 GL 379 374 5.13 Aalborg DNK eu JO47uc 1 INACTIVE 2007-04-04 2018-04-28 51 31 336
398 LPD 41 20.6 ID+17" tone Montlucon / Gueret FRA eu JN16eh 2 decommissioned 2022-08-11 2007-04-06 2022-03-26 1268 788 207
398 NIT 1069 1054 10.2 ID+7" gap Nitra SVK eu JN98ah 1 INACTIVE 2007-04-06 2008-09-22 1076 668 146
398 OK 1024 1021 8.17 ID+5" gap Connaught IRL eu IO53pw 2 2007-04-06 2024-02-24 1221 759 263
398 PEO 406 392 5.84 Stockhlom / Skavsta / Peola SWE eu JO88mt 2 2007-04-06 2024-04-27 477 297 57
399 FM 400 403 4.7 Trollhattan / Vanersborg SWE eu JO68di 2 2007-04-06 2024-02-25 229 142 34
399 NGY 416 396 6.69 ID+2" gap New Galloway for Prestwick SCT eu IO75ve 80 2 INACTIVE 2007-04-06 2019-09-02 901 560 265
399 O 410 400 4.19 Rovaniemi / Somerharju FIN eu KP26vn 1 INACTIVE 2007-04-06 2010-01-30 1369 851 30
399 WBD 1043 1002 8.27 Wiesbaden DEU eu JO40db 50 2 Sending 'TST' for ages (12/2014) 2007-04-06 2020-10-03 746 463 189
399.5 ONO 405 396 10.04 ID+6" gap Oostende BEL eu JO11lf 25 2 2007-04-06 2024-01-01 763 474 220
400 EN 407 410 3.81 Orebro SWE eu JO79mg 2 2007-04-06 2024-03-11 411 256 43
400 KO 403 411 8.5 Utti FIN eu KP30jv 1 INACTIVE 2007-04-06 2008-09-22 1068 664 57
400 NTD 373 374 8.24 Notodden NOR eu JO49no 2 INACTIVE 2007-04-06 2014-12-25 329 204 350
400.5 EJ 407 400 3.61 ID+2" gap Esbjerg DNK eu JO45in 1 2007-04-04 2024-05-15 150 93 214
401 BPL 1027 1012 10.1 ID+2.5" gap Bari / Palese (BA) ITA eu JN81gc 1 Province : Bari 2007-04-04 2021-08-30 1795 1115 162
401 JP 411 400 8.37 ID+5" gap Joensuu / Marjosarkka FIN eu KP42vp 2 INACTIVE 2007-04-06 2014-01-11 1284 798 50
401 LA 404 407 10.42 ID+7" gap Laval / Entrammes FRA eu IN97px 2 withdrawn effective date 2022-07-12 2007-04-06 2023-07-20 1210 752 221
401.5 BET 1040 1041 16.3 Rheine / Bentlage DEU eu JO32qg 2 INACTIVE 2007-04-06 2017-02-22 520 323 200
402 CAR 1018 1023 10.04 ID+4" gap Villasimius / Capo Carbonara (CA) SAR eu JM49sc 40 1 Province : Cagliari 2007-04-04 2021-05-29 1955 1215 181
402 KB 396 400 5.03 ID+3" gap Placid K12-B Platform XOE iw JO13wi 2 2007-04-06 2017-06-25 540 335 229
402 LX 420 381 4.66 ID+1" gap Eskilstuna / Kjula SWE eu JO89ig 1 2007-04-04 2024-01-28 486 302 51
402 TH 390 400 2.99 ID+1" gap Torsby SWE eu JP60ke 2 2007-04-06 2024-01-27 423 263 21
402.5 LBA 416 408 9.89 Leeds / Bradford ENG eu IO93eu 45 3 2007-04-06 2024-05-15 802 498 251
403 H 414 408 4.26 Helsinki / Vantaa FIN eu KP20li 2 INACTIVE 2007-04-06 2013-08-04 954 593 58
403 NM 396 404 3.55 ID+2" gap Mora / Slijan SWE eu JP71fa 2 2007-04-06 2024-03-11 544 338 25
403 OJ 404 397 5.64 Jonkoping SWE eu JO77aq 1 2007-04-06 2024-03-09 265 165 63
404 DA 374 379 8.65 Torp / Dalen / Sandefjord NOR eu JO59dg 2 INACTIVE 2007-04-06 2011-03-30 288 179 2
404 LA 401 400 4.41 Stockholm / Arlanda SWE eu JO89xr 1 INACTIVE 2007-04-06 2015-04-25 573 356 50
404 LRD 1020 1020 10.23 ID+6" gap Lerida ESP eu JN01hn 250 1 2007-04-04 2024-05-15 1812 1126 205
404 LW 1021 1016 8.09 Luxembourg LUX eu JN39co 50 1 decommissioned 2022-12-29 2007-04-06 2022-12-27 828 514 199
405 AV 397 399 3.75 Goteborg / Save SWE eu JO57wr 2 INACTIVE 2007-04-06 2015-06-22 160 99 42
405 BIC 19 18.23 DAID Briare / Chatillon FRA eu JN17jo 1 INACTIVE 2007-04-04 2009-11-14 1123 698 209
405 GRW 1051 1030 8.74 Grafenwohr DEU eu JN59xq 25 2 2007-04-06 2024-05-15 789 490 169
405 UM 1018 1015 20 IDx2 +10" Ivanovskoye RUS eu KO85ku 3 400 /1020 Hz OFFSETS 2007-04-06 2024-03-09 1649 1024 81
406 BHX 400 400 8.21 ID+3" gap Birmingham ENG eu IO92ck 25 1 WAS BIR 2007-04-06 2024-05-15 896 556 243
406 GRO 1048 1032 8 ID+2" gap Grosseto (GR) ITA eu JN52mq 40 1 INACTIVE - Province : Grosseto 2007-04-04 2011-04-22 1558 968 176
406 HON 1037 1036 16.32 ID+10" tone Holzdorf DEU eu JO61ns 25 1 Former HOZ-406. Operating times: sign on Mon - Fri between 0430 and 06:30; sign off Mon - Thu between 16:00 and 20:00; Fri between 12:00 and 14:00 2007-04-05 2024-01-29 582 362 158
406 V 406 409 4.19 Ivalo / Pajakoski FIN eu KP38qo 3 2007-04-06 2023-01-30 1581 983 26
406.5 BOT 1016 1021 6.77 Bottrop DEU eu JO31mn 25 3 2007-04-06 2024-05-15 602 374 200
407 GAR 373 404 5.1 Dublin / Garristown IRL eu IO63sm 50 3 INACTIVE - MISKEYING 'DIS' AND 'OAR' 2007-04-06 2010-11-19 1104 686 258
407 KA 409 392 3.53 Karlskoga SWE eu JO79fh 3 INACTIVE 2007-04-06 2010-09-24 391 243 39
407 LUP 1043 1047 16.53 ID+11" tone Laupheim DEU eu JN48wf 30 1 2007-04-04 2024-05-15 941 584 180
407 PN 1021 1020 10.08 ID+8" gap Palanga LTU eu KO05nx 3 2007-04-06 2024-04-27 687 427 91
407 SRT 1018 1040 8.4 ID+6" gap Sirte LBY af JM81he 1 INACTIVE 2007-04-04 2015-04-25 2881 1790 167
408 BRK 1026 1022 10.08 ID+6" gap Wien / Schwechat / Bruck AUT eu JN88ib 2 Decommissioned 2022-09-01 2007-04-05 2022-08-28 1059 658 152
408 CHI 1025 1017 10.09 ID+7" gap Chioggia / Rosolina (RO) ITA eu JN65db 40 1 Province : Rovigo 2007-04-04 2020-10-01 1302 809 172
408 F 413 403 4.19 Helsinki / Malmi FIN eu KP20mg 1 INACTIVE 2007-04-06 2013-05-01 956 594 59
408 W 410 409 4 Utti FIN eu KP30lv 2 INACTIVE 2007-04-05 2009-06-03 1077 669 57
409 NCS 1020 1016 9.1 ID+5" gap Nagy Cserkesz HNG eu KN07sx 1 INACTIVE 2007-04-05 2010-06-20 1241 771 136
409 SG 408 397 4.28 ID+2" gap Satenas / Tune SWE eu JO68ij 3 2007-04-06 2024-04-28 248 154 38
409 Z 406 407 8.52 Pyhasalmi FIN eu KP23xr 3 INACTIVE 2007-04-06 2015-02-21 1172 728 41
410 C 1032 1030 12.41 ID+8" gap La Coruna ESP eu IN53th 1 2007-04-06 2024-05-15 1973 1226 228
410 K 1016 1028 10.1 IDx2 Kaliningrad / Khrabrovo KAL eu KO04hv 2 ALSO 400 Hz 2007-04-06 2024-01-28 690 429 102
410 SF 400 400 20 IDx2 Cherusti RUS eu LO05an 1 400 / 1020 Hz OFFSETS 2007-04-06 2024-05-12 1849 1149 81
411 M 404 410 4.22 ID+4" gap Kokkola-Pietersaari / Kruunupyy FIN eu KP13nq 3 INACTIVE 2007-04-06 2014-12-28 1059 658 37
412 I 408 403 4.21 Halli / Markkulanmaki FIN eu KP21ku 3 INACTIVE 2007-04-06 2013-05-24 1016 631 49
413 BOA 1018 1025 8.8 ID+4" gap Bologna (BO) ITA eu JN54on 40 1 INACTIVE - Province : Bologna VEEN = Negative Keying 2007-04-04 2018-10-14 1351 839 176
413.5 DLS 1018 1021 5.7 ID+1" gap Berlin / Tempelhof / Lubars DEU eu JO62qo 50 2 2007-04-06 2021-07-10 502 312 153
414 BRI 403 412 10.42 Bristol / Filton ENG eu IO81pj 2 2007-04-06 2024-05-15 1017 632 240
414 HD 405 394 8.04 ID+6" gap Sandnessjoen / Stokka / Hestad NOR eu JP66gb 2 2007-04-06 2022-02-12 1051 653 6
414 SB 1014 1016 10.05 ID+7" gap Sambek RUS eu KN97vs 1 2007-04-04 2024-05-12 2232 1387 103
414 SLB 402 399 10.04 Oslo / Gardermoen / Solberg NOR eu JP50la 3 INACTIVE 2007-04-06 2011-03-19 374 233 7
415 DR 402 405 29.9 IDx2 + 6" gap Skurygino RUS eu KO85qf 2 400 / 1020 Hz OFFSETS 2007-04-06 2024-01-12 1698 1055 83
415 OL 400 400 5.04 Linkoping / Saab SWE eu JO78vj 2 2007-04-06 2024-01-27 392 244 58
416 BCS 409 979 6.25 ID+3" gap Baccus SWE eu JP82mn 2 2007-04-06 2023-01-27 762 473 28
416 R 402 396 2.33 Arvika SWE eu JO69hp 1 INACTIVE 2007-04-06 2013-09-12 362 225 23
416 TOR 408 414 8.1 ID+5" gap Rovaniemi / Toramo FIN eu KP26xp 2 INACTIVE 2007-04-06 2017-12-27 1381 858 30
417 AH 412 410 4.2 ID+2" gap Angelholm / Barkakra SWE eu JO66kg 2 2007-04-06 2024-03-09 180 112 103
417 HDL 1062 1015 8.4 ID+5"gap Heidelberg DEU eu JN49hj 25 1 INACTIVE 2007-04-06 2015-04-24 816 507 187
417 LI 1019 1025 4.45 ID+2" gap Dusseldorf DEU eu JO31ki 25 2 2007-04-06 2024-05-15 628 390 200
417 R 408 392 2.11 Gavle / Sandviken SWE eu JP80lo 2 INACTIVE 2007-04-06 2019-10-29 591 367 39
418 L 410 411 8.36 ID+7" gap Tallin / Ulemiste EST eu KO29kj 25 2 2007-04-06 2017-02-18 921 572 64
419 HY 410 406 8.48 Vaasa / Langskog FIN eu KP02vx 2 INACTIVE 2007-04-06 2013-08-30 957 594 38
419 RA 399 401 4.24 Tyra East A Platform XOE iw JO25fk 1 2007-04-06 2023-02-24 373 232 250
419 RD 398 399 4.26 ID+2" gap Vasteras / Hasslo SWE eu JO89hm 2 2007-04-06 2024-03-11 498 310 48
420 BAZ 820 820 15 ID+9" gap Bayreuth / Bindlacherberg DEU eu JN59sw 25 2 INACTIVE 2007-04-06 2008-10-20 757 470 171
420 KN 907 910 30.24 IDx2 + 23" gap Kobona RUS eu KP50sa 2 INACTIVE 2007-04-06 2012-03-22 1301 808 64
420 SS 401 404 4 Malmo / Sturup SWE eu JO65ql 1 INACTIVE 2007-04-06 2009-01-23 247 153 121
421 BL 407 391 4.37 ID+1" gap Borlange / Rommehed / Falun SWE eu JP70ql 1 2007-04-06 2024-03-11 522 325 33
421 MF 419 396 4.74 ID+2" gap Halmstad SWE eu JO66jp 1 WAS HS 2007-04-06 2024-05-15 168 104 90
421 T 400 400 1.3 Linkoping / Saab SWE eu JO78uj 1 INACTIVE 2007-04-06 2013-12-04 388 241 58
422 UR 1112 1147 10.15 ID+7" gap Hradec Kralove / Upir CZE eu JO70we 50 1 INACTIVE 2007-04-06 2018-12-27 819 509 149
423 FE 402 400 4.17 ID+2" gap Odense / Beldringe DNK eu JO55fm 1 deceommissioned 20240223 2007-04-06 2024-01-01 132 82 168
423 ZO 1095 940 8.98 ID+5" tone Nis / Zitoradja SRB eu KN03ue 1 CARRIER 422.918 (JAN 2018) 2007-04-06 2024-03-10 1712 1064 146
424 PIS 1018 1023 8.13 ID+5" gap Zagreb / Pleso / Pisarovina HRV eu JN75wo 1 2007-04-06 2024-05-15 1297 806 159
425 OU 414 402 4.74 Umea SWE eu KP03cu 1 INACTIVE 2007-04-06 2015-01-24 972 604 30
426 GBG 400 397 10.04 ID+6" gap Gleichenberg for Graz AUT eu JN76vv 100 1 2007-04-06 2024-05-15 1157 719 157
426 IW 365 420 5 Bembridge ENG eu IO90kq 1 INACTIVE 2007-04-06 2007-08-13 991 616 232
426 PW 405 402 5.06 Prestwick SCT eu IO75pn 1 INACTIVE 2007-04-06 2009-05-02 921 572 268
426.5 MIQ 1520 520 8.09 Mike for Ingolstadt DEU eu JN58tn 1 INACTIVE - NOW ON 426.0 2007-04-06 2022-02-25 910 565 172
427 LUE 402 399 4.92 ID+1" gap Kramfors / Lunde SWE eu JP82vv 1 2007-04-06 2024-03-09 814 506 28
428 BST 18 31 19.54 ID+12" tone Lanveoc / Poulmic FRA eu IN78sg 25 1 keyed carrier NDB 2007-04-06 2024-01-01 1351 840 232
428 MCH 411 405 6.31 Manchester ENG eu IO83ui 50 1 INACTIVE 2007-04-06 2008-02-13 867 539 249
429 LOS 1020 1026 8.12 ID+4" gap Losinj HRV eu JN74fm 40 1 2007-04-06 2024-05-15 1388 862 165
430 AJ 396 398 25 IDx2 Staritza RUS eu KO76lm 1 400 / 1020 Hz OFFSETS 2007-04-06 2024-02-21 1517 942 80
430 MB 1021 1020 20 IDx3 Chemukha RUS eu LO15vo 1 2007-04-06 2024-05-12 2073 1288 79
431 ONT 1025 1018 20 ID+15" tone Kleine Brogel BEL eu JO21sf 15 1 INACTIVE 2007-04-06 2009-11-15 674 419 207
434 THN 410 415 5.5 Thorn HOL eu JO21ve 15 1 INACTIVE 2007-04-06 2008-01-16 672 417 206
435 SM 19 1000 15 IDx2 + 9" gap Semenivka UKR eu KO62ge 1 2007-04-06 2020-04-16 1530 951 99
437 DE 1031 1011 30.34 IDx2 Moscow / Domodedovo RUS eu KO85xi 1 2007-04-06 2017-09-30 1729 1074 83
438 KO 1035 1031 8.43 ID+5\" gap Rijeka / Krk / Kozala HRV eu JN75fi 1 EX KO 302.0 2007-04-06 2023-04-22 1297 806 164
440 OR 1015 1020 4.5 Rzeszow / Jasionka POL eu KO00xc 1 INACTIVE 2007-04-06 2009-12-05 1074 668 127
440 PIA 1020 1020 5.96 ID+2" gap San Giorgio Piacentino (PC) ITA eu JN44vu 1 INACTIVE - Province : Piacenza 2007-04-06 2016-07-23 1316 818 180
441 CK 1010 1014 8.99 ID+9" gap Prerov CZE eu JN89qj 50 1 INACTIVE 2007-04-06 2013-06-10 946 588 145
444 NRD 402 400 5.46 ID+2.5" gap Inowroclaw POL eu JO92eu 1 SENDING ALSO 'RRD' 2007-04-06 2023-03-26 683 424 125
445 KM 1016 1023 20 IDx2 +11" gap Kem RUS eu KP74fw 1